Time;durP1;ratioP1;P1;durP2;ratioP2;P2;SDS_P1;SDS_P2;PMS_P1;PMS_P2;Temp;Humidity;BMP_temperature;BMP_pressure;BME280_temperature;BME280_humidity;BME280_pressure;Samples;Min_cycle;Max_cycle;Signal;HPM_P1;HPM_P2
2023/01/10 00:00:37;;;;;;;0.00;0.00;;;6.40;89.80;;;;;;4996898;28;20154;-71
2023/01/10 00:03:04;;;;;;;0.00;0.00;;;6.50;89.70;;;;;;5017959;28;20077;-70
2023/01/10 00:05:30;;;;;;;0.00;0.00;;;6.50;89.80;;;;;;4977363;28;20116;-70
2023/01/10 00:07:57;;;;;;;0.10;0.10;;;6.60;89.70;;;;;;5012721;28;20052;-70
2023/01/10 00:10:24;;;;;;;0.00;0.00;;;6.60;89.60;;;;;;5011494;28;20056;-70
2023/01/10 00:15:35;;;;;;;0.10;0.10;;;6.60;89.50;;;;;;5007485;28;20046;-71
2023/01/10 00:18:01;;;;;;;0.00;0.00;;;6.70;89.50;;;;;;5009896;28;20053;-71
2023/01/10 00:20:27;;;;;;;0.00;0.00;;;6.70;89.50;;;;;;5010063;28;20046;-70
2023/01/10 00:22:53;;;;;;;0.00;0.00;;;6.70;89.60;;;;;;4998050;28;20406;-71
2023/01/10 00:25:20;;;;;;;0.00;0.00;;;6.70;89.70;;;;;;5009471;28;20073;-71
2023/01/10 00:27:54;;;;;;;0.00;0.00;;;6.70;89.70;;;;;;5009650;28;20049;-71
2023/01/10 00:30:19;;;;;;;0.73;0.73;;;6.80;89.70;;;;;;5012429;28;20526;-71
2023/01/10 00:32:45;;;;;;;0.00;0.00;;;6.70;89.60;;;;;;4993784;28;20077;-71
2023/01/10 00:35:11;;;;;;;0.00;0.00;;;6.80;89.50;;;;;;4992445;28;20414;-71
2023/01/10 00:37:38;;;;;;;0.00;0.00;;;6.80;89.50;;;;;;4974372;28;20499;-71
2023/01/10 00:40:09;;;;;;;0.00;0.00;;;6.80;89.50;;;;;;5008512;28;20673;-71
2023/01/10 00:45:21;;;;;;;5.82;3.00;;;6.80;89.40;;;;;;5011978;28;20083;-71
2023/01/10 00:47:47;;;;;;;0.00;0.00;;;6.80;89.40;;;;;;5009812;28;20045;-71
2023/01/10 00:50:13;;;;;;;0.00;0.00;;;6.80;89.40;;;;;;5019519;28;20050;-71
2023/01/10 00:52:39;;;;;;;0.00;0.00;;;6.80;89.30;;;;;;5009642;28;20057;-71
2023/01/10 00:55:05;;;;;;;0.00;0.00;;;6.80;89.40;;;;;;5010951;28;20046;-71
2023/01/10 00:57:30;;;;;;;0.00;0.00;;;6.80;89.40;;;;;;5009147;28;20058;-71
2023/01/10 00:59:57;;;;;;;0.10;0.10;;;6.80;89.40;;;;;;5022870;28;20445;-71
2023/01/10 01:02:23;;;;;;;0.00;0.00;;;6.80;89.30;;;;;;5016026;28;20058;-71
2023/01/10 01:04:48;;;;;;;0.00;0.00;;;6.70;89.50;;;;;;5017815;28;20045;-71
2023/01/10 01:07:14;;;;;;;0.00;0.00;;;6.80;89.60;;;;;;4975831;28;20509;-71
2023/01/10 01:10:25;;;;;;;0.00;0.00;;;6.70;89.70;;;;;;5010538;28;20044;-71
2023/01/10 01:12:25;;;;;;;0.00;0.00;;;6.80;89.90;;;;;;5008678;28;20049;-71
2023/01/10 01:14:51;;;;;;;0.00;0.00;;;6.80;90.00;;;;;;4980201;28;20045;-71
2023/01/10 01:17:17;;;;;;;0.00;0.00;;;6.80;90.00;;;;;;5011123;28;20045;-71
2023/01/10 01:19:42;;;;;;;0.00;0.00;;;6.90;90.10;;;;;;4996196;28;20104;-71
2023/01/10 01:22:08;;;;;;;0.00;0.00;;;6.90;90.10;;;;;;5009679;28;20085;-71
2023/01/10 01:24:34;;;;;;;0.00;0.00;;;6.90;90.00;;;;;;5009381;28;20584;-71
2023/01/10 01:27:00;;;;;;;0.00;0.00;;;6.90;89.70;;;;;;5009306;28;20046;-71
2023/01/10 01:29:25;;;;;;;0.00;0.00;;;6.90;89.60;;;;;;4975877;28;20422;-71
2023/01/10 01:31:51;;;;;;;0.00;0.00;;;7.00;89.60;;;;;;5008838;28;20030;-70
2023/01/10 01:34:16;;;;;;;5.22;0.90;;;7.00;89.30;;;;;;5008812;28;20038;-71
2023/01/10 01:36:42;;;;;;;0.00;0.00;;;7.00;89.20;;;;;;5004462;28;20076;-71
2023/01/10 01:39:08;;;;;;;0.00;0.00;;;7.00;89.10;;;;;;5008471;28;20045;-70
2023/01/10 01:44:18;;;;;;;0.00;0.00;;;7.10;89.00;;;;;;4988748;28;20749;-71
2023/01/10 01:46:59;;;;;;;0.00;0.00;;;7.00;88.90;;;;;;4995022;28;20053;-71
2023/01/10 01:49:25;;;;;;;0.00;0.00;;;7.00;88.70;;;;;;5018522;28;20099;-71
2023/01/10 01:51:58;;;;;;;0.00;0.00;;;7.00;88.90;;;;;;5014005;28;20434;-71
2023/01/10 01:54:25;;;;;;;0.00;0.00;;;7.10;88.90;;;;;;5012360;28;20132;-71
2023/01/10 01:56:57;;;;;;;0.00;0.00;;;7.10;89.00;;;;;;5017856;28;20037;-71
2023/01/10 01:59:29;;;;;;;0.00;0.00;;;7.10;89.20;;;;;;5011829;28;20061;-71
2023/01/10 02:02:02;;;;;;;0.00;0.00;;;7.10;89.30;;;;;;5018445;28;20037;-71
2023/01/10 02:04:35;;;;;;;0.25;0.25;;;7.10;89.50;;;;;;4997853;28;20050;-71
2023/01/10 02:07:00;;;;;;;0.00;0.00;;;7.10;89.70;;;;;;4994470;28;20104;-71
2023/01/10 02:09:39;;;;;;;0.00;0.00;;;7.10;90.00;;;;;;4978572;28;20054;-71
2023/01/10 02:12:06;;;;;;;0.47;0.47;;;7.20;90.00;;;;;;4983658;28;20045;-71
2023/01/10 02:14:33;;;;;;;0.55;0.55;;;7.20;90.00;;;;;;4992421;28;20391;-71
2023/01/10 02:16:58;;;;;;;0.00;0.00;;;7.10;90.10;;;;;;5004903;28;20499;-71
2023/01/10 02:19:47;;;;;;;0.00;0.00;;;7.20;90.20;;;;;;5001675;28;20037;-71
2023/01/10 02:22:30;;;;;;;0.10;0.10;;;7.10;90.10;;;;;;5012353;28;20137;-71
2023/01/10 02:25:35;;;;;;;0.00;0.00;;;7.10;90.30;;;;;;5011691;28;20050;-71
2023/01/10 02:28:03;;;;;;;0.00;0.00;;;7.10;90.40;;;;;;5011589;28;20041;-71
2023/01/10 02:30:45;;;;;;;0.00;0.00;;;7.10;90.60;;;;;;5010575;28;20123;-71
2023/01/10 02:33:17;;;;;;;0.10;0.10;;;7.10;90.70;;;;;;5012004;28;20045;-71
2023/01/10 02:35:45;;;;;;;0.00;0.00;;;7.10;90.70;;;;;;5011920;28;20054;-71
2023/01/10 02:38:28;;;;;;;0.00;0.00;;;7.00;90.70;;;;;;5011883;28;20046;-71
2023/01/10 02:41:08;;;;;;;0.15;0.15;;;7.00;90.90;;;;;;5021199;28;20041;-71
2023/01/10 02:43:38;;;;;;;0.00;0.00;;;7.10;90.90;;;;;;5011467;28;20885;-71
2023/01/10 02:46:23;;;;;;;0.08;0.08;;;7.00;91.00;;;;;;5015689;28;20042;-71
2023/01/10 02:48:53;;;;;;;0.00;0.00;;;7.00;91.30;;;;;;5011758;28;20050;-71
2023/01/10 02:51:26;;;;;;;0.00;0.00;;;7.10;91.40;;;;;;5000237;28;20050;-71
2023/01/10 02:54:18;;;;;;;0.00;0.00;;;7.10;91.40;;;;;;5013264;28;20049;-71
2023/01/10 02:56:43;;;;;;;;;;;7.10;91.40;;;;;;5011904;28;20053;-71
2023/01/10 02:59:44;;;;;;;0.00;0.00;;;7.10;91.40;;;;;;5012710;28;19925;-71
2023/01/10 03:02:50;;;;;;;0.00;0.00;;;7.10;91.50;;;;;;5011023;28;20053;-71
2023/01/10 03:05:27;;;;;;;0.00;0.00;;;7.10;91.40;;;;;;4994640;28;20042;-72
2023/01/10 03:08:08;;;;;;;1.90;1.58;;;7.10;91.70;;;;;;5011129;28;20042;-71
2023/01/10 03:10:43;;;;;;;0.30;0.30;;;7.10;91.70;;;;;;4995867;28;20060;-71
2023/01/10 03:13:18;;;;;;;0.00;0.00;;;7.10;91.60;;;;;;5011114;28;20562;-71
2023/01/10 03:15:45;;;;;;;0.00;0.00;;;6.90;91.60;;;;;;5011759;28;20538;-71
2023/01/10 03:18:27;;;;;;;0.32;0.13;;;7.00;91.70;;;;;;5002746;28;20065;-71
2023/01/10 03:20:53;;;;;;;0.22;0.22;;;7.00;91.60;;;;;;5011625;28;20544;-71
2023/01/10 03:23:21;;;;;;;0.00;0.00;;;7.00;91.60;;;;;;4993917;28;20093;-71
2023/01/10 03:25:49;;;;;;;0.10;0.10;;;6.90;91.50;;;;;;5011270;28;20133;-71
2023/01/10 03:28:29;;;;;;;0.00;0.00;;;7.00;91.30;;;;;;4994312;28;20085;-71
2023/01/10 03:31:02;;;;;;;0.00;0.00;;;6.90;91.30;;;;;;5013730;28;20388;-71
2023/01/10 03:33:31;;;;;;;0.00;0.00;;;6.90;91.20;;;;;;5000883;28;20058;-71
2023/01/10 03:36:19;;;;;;;0.00;0.00;;;6.90;91.10;;;;;;5010834;28;20049;-71
2023/01/10 03:39:01;;;;;;;0.00;0.00;;;6.90;91.10;;;;;;5010009;28;20053;-71
2023/01/10 03:41:36;;;;;;;0.00;0.00;;;6.90;91.20;;;;;;5002020;28;20049;-71
2023/01/10 03:47:07;;;;;;;0.00;0.00;;;6.90;91.30;;;;;;4996225;28;20050;-70
2023/01/10 03:49:36;;;;;;;0.00;0.00;;;6.90;91.30;;;;;;4977292;28;20041;-70
2023/01/10 03:52:03;;;;;;;0.00;0.00;;;6.90;91.40;;;;;;5010563;28;20521;-70
2023/01/10 03:54:29;;;;;;;0.00;0.00;;;7.00;91.40;;;;;;4992753;28;20054;-70
2023/01/10 03:56:54;;;;;;;0.00;0.00;;;7.00;91.50;;;;;;5010353;28;20128;-70
2023/01/10 03:59:23;;;;;;;0.00;0.00;;;6.90;91.80;;;;;;5012113;28;20081;-70
2023/01/10 04:01:49;;;;;;;0.00;0.00;;;7.00;91.90;;;;;;5030325;28;20072;-70
2023/01/10 04:04:15;;;;;;;0.00;0.00;;;7.00;91.90;;;;;;5011730;28;20045;-71
2023/01/10 04:06:41;;;;;;;0.00;0.00;;;7.00;91.90;;;;;;5020459;28;20038;-71
2023/01/10 04:09:07;;;;;;;0.00;0.00;;;6.90;91.90;;;;;;4991382;28;20087;-70
2023/01/10 04:11:33;;;;;;;0.00;0.00;;;6.90;92.00;;;;;;5004672;28;20041;-70
2023/01/10 04:13:58;;;;;;;0.00;0.00;;;7.00;92.00;;;;;;5018553;28;20084;-71
2023/01/10 04:16:24;;;;;;;0.00;0.00;;;6.90;92.00;;;;;;5024313;28;20084;-70
2023/01/10 04:18:49;;;;;;;0.00;0.00;;;6.90;92.10;;;;;;5009801;28;20038;-70
2023/01/10 04:21:15;;;;;;;0.00;0.00;;;6.90;92.10;;;;;;5009390;28;20054;-70
2023/01/10 04:23:41;;;;;;;0.00;0.00;;;6.90;92.10;;;;;;5009361;28;20077;-71
2023/01/10 04:26:06;;;;;;;0.00;0.00;;;6.90;92.10;;;;;;5010026;28;20049;-70
2023/01/10 04:28:32;;;;;;;0.00;0.00;;;6.80;92.00;;;;;;5010075;28;20038;-71
2023/01/10 04:30:58;;;;;;;0.00;0.00;;;6.80;91.80;;;;;;5011145;28;20069;-71
2023/01/10 04:33:23;;;;;;;0.00;0.00;;;6.80;91.80;;;;;;5007903;28;20092;-71
2023/01/10 04:35:50;;;;;;;0.00;0.00;;;6.80;91.90;;;;;;4990361;28;20045;-71
2023/01/10 04:38:16;;;;;;;0.00;0.00;;;6.70;92.00;;;;;;4972978;28;20550;-71
2023/01/10 04:40:42;;;;;;;0.00;0.00;;;6.80;92.00;;;;;;5003517;28;20092;-71
2023/01/10 04:43:08;;;;;;;0.00;0.00;;;6.70;92.00;;;;;;5009201;28;20418;-70
2023/01/10 04:45:34;;;;;;;0.00;0.00;;;6.70;92.00;;;;;;5019183;28;20041;-70
2023/01/10 04:47:59;;;;;;;0.10;0.10;;;6.80;92.00;;;;;;5019387;28;20464;-71
2023/01/10 04:50:26;;;;;;;0.00;0.00;;;6.80;91.80;;;;;;5010209;28;20049;-71
2023/01/10 04:52:52;;;;;;;0.00;0.00;;;6.70;91.90;;;;;;5001726;28;20088;-71
2023/01/10 04:55:18;;;;;;;0.00;0.00;;;6.70;92.20;;;;;;5009401;28;20119;-71
2023/01/10 04:57:43;;;;;;;0.00;0.00;;;6.70;92.20;;;;;;4992780;28;20056;-71
2023/01/10 05:00:10;;;;;;;0.00;0.00;;;6.70;92.30;;;;;;4996395;28;20058;-71
2023/01/10 05:02:42;;;;;;;0.00;0.00;;;6.70;92.40;;;;;;5014072;28;20077;-70
2023/01/10 05:05:09;;;;;;;0.00;0.00;;;6.70;92.30;;;;;;5009480;28;20046;-71
2023/01/10 05:07:35;;;;;;;0.00;0.00;;;6.70;92.30;;;;;;5011621;28;20066;-70
2023/01/10 05:10:01;;;;;;;0.08;0.08;;;6.70;92.30;;;;;;5010091;28;20061;-70
2023/01/10 05:12:26;;;;;;;0.00;0.00;;;6.70;92.30;;;;;;4991794;28;20050;-70
2023/01/10 05:14:52;;;;;;;0.00;0.00;;;6.70;92.30;;;;;;4982430;28;20045;-70
2023/01/10 05:17:17;;;;;;;0.00;0.00;;;6.60;92.30;;;;;;5010537;28;20046;-70
2023/01/10 05:19:43;;;;;;;0.00;0.00;;;6.60;92.20;;;;;;5004371;28;20085;-70
2023/01/10 05:22:08;;;;;;;0.00;0.00;;;6.60;92.10;;;;;;4989696;28;20061;-71
2023/01/10 05:24:34;;;;;;;0.00;0.00;;;6.60;92.20;;;;;;4991182;28;20046;-70
2023/01/10 05:26:59;;;;;;;0.55;0.55;;;6.60;92.20;;;;;;4992240;28;20155;-70
2023/01/10 05:29:25;;;;;;;0.00;0.00;;;6.60;92.30;;;;;;5006385;28;20928;-70
2023/01/10 05:31:51;;;;;;;0.00;0.00;;;6.60;92.30;;;;;;5013486;28;20463;-70
2023/01/10 05:34:16;;;;;;;0.00;0.00;;;6.60;92.20;;;;;;4995871;28;20103;-71
2023/01/10 05:36:42;;;;;;;0.00;0.00;;;6.60;92.20;;;;;;4990869;28;20096;-69
2023/01/10 05:39:07;;;;;;;0.00;0.00;;;6.50;92.10;;;;;;5008073;28;20046;-68
2023/01/10 05:41:33;;;;;;;0.00;0.00;;;6.50;92.10;;;;;;5012406;28;20064;-68
2023/01/10 05:43:59;;;;;;;0.00;0.00;;;6.40;92.10;;;;;;5007760;28;20045;-68
2023/01/10 05:46:24;;;;;;;0.00;0.00;;;6.40;92.20;;;;;;5012783;28;20080;-69
2023/01/10 05:48:51;;;;;;;0.00;0.00;;;6.40;92.20;;;;;;5008966;28;20128;-68
2023/01/10 05:51:17;;;;;;;0.00;0.00;;;6.40;92.30;;;;;;5014564;28;20125;-68
2023/01/10 05:53:43;;;;;;;0.00;0.00;;;6.40;92.30;;;;;;5029742;28;20160;-68
2023/01/10 05:56:09;;;;;;;0.00;0.00;;;6.40;92.30;;;;;;5032820;28;20412;-69
2023/01/10 05:58:35;;;;;;;0.00;0.00;;;6.30;92.30;;;;;;5014583;28;20061;-69
2023/01/10 06:01:00;;;;;;;0.05;0.05;;;6.30;92.30;;;;;;5032390;28;20087;-69
2023/01/10 06:03:26;;;;;;;0.00;0.00;;;6.30;92.30;;;;;;5017279;28;20050;-68
2023/01/10 06:05:53;;;;;;;0.00;0.00;;;6.30;92.40;;;;;;4994719;28;20058;-69
2023/01/10 06:08:19;;;;;;;0.10;0.10;;;6.30;92.30;;;;;;5022749;28;20128;-68
2023/01/10 06:10:45;;;;;;;0.00;0.00;;;6.30;92.40;;;;;;5026928;28;20049;-68
2023/01/10 06:13:11;;;;;;;0.00;0.00;;;6.30;92.40;;;;;;5002362;28;20445;-68
2023/01/10 06:15:37;;;;;;;0.00;0.00;;;6.30;92.40;;;;;;4982365;28;20069;-68
2023/01/10 06:18:02;;;;;;;0.00;0.00;;;6.30;92.50;;;;;;5011562;28;20771;-69
2023/01/10 06:20:28;;;;;;;0.00;0.00;;;6.40;92.50;;;;;;5019471;28;20038;-69
2023/01/10 06:22:54;;;;;;;0.00;0.00;;;6.30;92.40;;;;;;5031465;28;20144;-68
2023/01/10 06:25:19;;;;;;;0.10;0.10;;;6.30;92.40;;;;;;5018059;28;20558;-70
2023/01/10 06:27:45;;;;;;;0.30;0.30;;;6.30;92.40;;;;;;4990100;28;20502;-68
2023/01/10 06:30:12;;;;;;;0.00;0.00;;;6.30;92.60;;;;;;4993360;28;20061;-69
2023/01/10 06:32:39;;;;;;;0.10;0.10;;;6.40;92.60;;;;;;5011481;28;20498;-70
2023/01/10 06:35:05;;;;;;;0.00;0.00;;;6.40;92.70;;;;;;5010489;28;20045;-69
2023/01/10 06:37:31;;;;;;;0.00;0.00;;;6.40;93.00;;;;;;4992497;28;20057;-70
2023/01/10 06:39:57;;;;;;;3.05;2.60;;;6.50;93.00;;;;;;4994048;28;20406;-69
2023/01/10 06:42:23;;;;;;;0.00;0.00;;;6.60;92.90;;;;;;5011140;28;20571;-68
2023/01/10 06:44:48;;;;;;;0.00;0.00;;;6.60;93.00;;;;;;4993775;28;20550;-69
2023/01/10 06:47:14;;;;;;;0.15;0.15;;;6.70;93.10;;;;;;4993468;28;20136;-68
2023/01/10 06:49:39;;;;;;;0.00;0.00;;;6.70;93.20;;;;;;5009795;28;20494;-69
2023/01/10 06:52:05;;;;;;;0.00;0.00;;;6.70;93.20;;;;;;5011107;28;20541;-69
2023/01/10 06:54:30;;;;;;;0.00;0.00;;;6.70;93.10;;;;;;5010815;28;20515;-69
2023/01/10 06:56:56;;;;;;;0.00;0.00;;;6.80;93.20;;;;;;4992963;28;20058;-69
2023/01/10 06:59:22;;;;;;;0.00;0.00;;;6.80;93.20;;;;;;5010247;28;20054;-69
2023/01/10 07:01:47;;;;;;;0.00;0.00;;;6.90;93.20;;;;;;5010174;28;20068;-68
2023/01/10 07:04:13;;;;;;;0.00;0.00;;;6.90;93.00;;;;;;5010795;28;20091;-69
2023/01/10 07:06:40;;;;;;;0.08;0.08;;;6.90;93.00;;;;;;5011157;28;20132;-69
2023/01/10 07:09:05;;;;;;;0.20;0.20;;;7.00;92.80;;;;;;5016612;28;20498;-69
2023/01/10 07:11:33;;;;;;;1.38;1.27;;;6.90;92.70;;;;;;5010461;28;20076;-69
2023/01/10 07:14:00;;;;;;;0.00;0.00;;;7.00;92.60;;;;;;4992697;28;20084;-69
2023/01/10 07:16:26;;;;;;;0.00;0.00;;;6.90;92.50;;;;;;5010651;28;20089;-69
2023/01/10 07:18:52;;;;;;;0.00;0.00;;;6.90;92.30;;;;;;5024057;28;20045;-69
2023/01/10 07:21:18;;;;;;;0.00;0.00;;;6.90;92.30;;;;;;5010129;28;20392;-70
2023/01/10 07:23:50;;;;;;;0.00;0.00;;;6.90;92.30;;;;;;4998417;28;20048;-69
2023/01/10 07:26:17;;;;;;;0.10;0.10;;;6.80;92.20;;;;;;5005245;28;20859;-69
2023/01/10 07:28:44;;;;;;;0.00;0.00;;;6.70;91.90;;;;;;4998765;28;20049;-69
2023/01/10 07:31:12;;;;;;;0.15;0.15;;;6.70;92.00;;;;;;5009760;28;20034;-69
2023/01/10 07:33:37;;;;;;;0.00;0.00;;;6.60;91.90;;;;;;5010224;28;20128;-68
2023/01/10 07:36:03;;;;;;;0.13;0.13;;;6.60;92.00;;;;;;5008020;28;20509;-66
2023/01/10 07:38:29;;;;;;;0.00;0.00;;;6.50;91.80;;;;;;5009135;28;20046;-65
2023/01/10 07:40:54;;;;;;;0.00;0.00;;;6.50;92.00;;;;;;5009609;28;20597;-66
2023/01/10 07:43:20;;;;;;;0.00;0.00;;;6.50;91.90;;;;;;5000661;28;20088;-66
2023/01/10 07:45:46;;;;;;;0.00;0.00;;;6.50;91.90;;;;;;5005198;28;20060;-65
2023/01/10 07:48:11;;;;;;;0.00;0.00;;;6.40;91.90;;;;;;5008363;28;20108;-65
2023/01/10 07:50:37;;;;;;;0.22;0.22;;;6.40;91.80;;;;;;5008422;28;20046;-65
2023/01/10 07:53:05;;;;;;;0.00;0.00;;;6.40;91.90;;;;;;4997645;28;20534;-65
2023/01/10 07:55:33;;;;;;;0.00;0.00;;;6.40;91.90;;;;;;5004889;28;20144;-65
2023/01/10 07:57:59;;;;;;;0.00;0.00;;;6.30;91.90;;;;;;4996877;28;20062;-66
2023/01/10 08:00:25;;;;;;;11.20;2.05;;;6.30;91.80;;;;;;5006934;28;20479;-65
2023/01/10 08:02:54;;;;;;;0.05;0.05;;;6.30;91.90;;;;;;4994610;28;20121;-65
2023/01/10 08:05:22;;;;;;;0.00;0.00;;;6.20;91.90;;;;;;5007041;28;20120;-66
2023/01/10 08:07:48;;;;;;;1.38;1.02;;;6.20;91.90;;;;;;5008174;28;20044;-65
2023/01/10 08:10:13;;;;;;;4.00;2.45;;;6.20;92.00;;;;;;5007591;28;20045;-66
2023/01/10 08:12:39;;;;;;;0.00;0.00;;;6.10;92.00;;;;;;5008907;28;20049;-65
2023/01/10 08:15:05;;;;;;;0.10;0.10;;;6.20;92.00;;;;;;5007186;28;20050;-66
2023/01/10 08:17:34;;;;;;;0.00;0.00;;;6.10;92.00;;;;;;5008060;28;20526;-66
2023/01/10 08:20:00;;;;;;;0.30;0.30;;;6.20;92.10;;;;;;5009509;28;20042;-65
2023/01/10 08:22:26;;;;;;;0.00;0.00;;;6.10;92.10;;;;;;5006201;28;20037;-66
2023/01/10 08:24:51;;;;;;;0.00;0.00;;;6.20;92.10;;;;;;5007859;28;20115;-66
2023/01/10 08:27:17;;;;;;;0.00;0.00;;;6.20;92.10;;;;;;5006453;28;20046;-66
2023/01/10 08:29:43;;;;;;;1.00;0.98;;;6.10;92.10;;;;;;5006726;28;20501;-66
2023/01/10 08:32:09;;;;;;;0.00;0.00;;;6.20;92.10;;;;;;5010362;28;20093;-66
2023/01/10 08:34:34;;;;;;;0.00;0.00;;;6.10;92.10;;;;;;5007761;28;20045;-66
2023/01/10 08:37:00;;;;;;;0.00;0.00;;;6.10;92.20;;;;;;5007198;28;20049;-66
2023/01/10 08:39:29;;;;;;;0.00;0.00;;;6.10;92.20;;;;;;5007996;28;20693;-66
2023/01/10 08:41:55;;;;;;;0.00;0.00;;;6.10;92.20;;;;;;5004028;28;20054;-66
2023/01/10 08:44:21;;;;;;;0.00;0.00;;;6.20;92.30;;;;;;5003787;28;20851;-66
2023/01/10 08:46:46;;;;;;;0.03;0.03;;;6.20;92.20;;;;;;5003687;28;20077;-66
2023/01/10 08:49:12;;;;;;;0.00;0.00;;;6.20;92.30;;;;;;5004545;28;20049;-66
2023/01/10 08:51:38;;;;;;;0.10;0.10;;;6.20;92.20;;;;;;5006210;28;20100;-66
2023/01/10 08:54:04;;;;;;;0.00;0.00;;;6.30;92.20;;;;;;5004663;28;20522;-66
2023/01/10 08:56:30;;;;;;;0.10;0.10;;;6.30;92.20;;;;;;5007173;28;20088;-66
2023/01/10 08:58:55;;;;;;;0.00;0.00;;;6.30;92.10;;;;;;4996605;28;20054;-66
2023/01/10 09:01:21;;;;;;;0.00;0.00;;;6.40;92.10;;;;;;5006926;28;20084;-66
2023/01/10 09:03:47;;;;;;;0.00;0.00;;;6.50;92.00;;;;;;5005775;28;20165;-66
2023/01/10 09:06:12;;;;;;;0.00;0.00;;;6.60;91.90;;;;;;5006447;28;20077;-66
2023/01/10 09:08:38;;;;;;;0.00;0.00;;;6.60;91.80;;;;;;5006378;28;20053;-66
2023/01/10 09:11:04;;;;;;;0.00;0.00;;;6.70;91.50;;;;;;5005937;28;20464;-66
2023/01/10 09:13:30;;;;;;;0.38;0.38;;;6.80;91.30;;;;;;5004853;28;20585;-66
2023/01/10 09:15:56;;;;;;;0.00;0.00;;;6.80;91.20;;;;;;5006673;28;20053;-65
2023/01/10 09:18:22;;;;;;;0.13;0.13;;;6.90;91.00;;;;;;5005751;28;20425;-66
2023/01/10 09:20:49;;;;;;;2.67;0.38;;;6.90;91.00;;;;;;5006305;28;20117;-67
2023/01/10 09:23:18;;;;;;;0.00;0.00;;;7.00;91.00;;;;;;5005380;28;20053;-65
2023/01/10 09:25:49;;;;;;;0.10;0.10;;;7.10;91.00;;;;;;5005260;28;20038;-66
2023/01/10 09:28:15;;;;;;;0.00;0.00;;;7.10;90.80;;;;;;5006012;28;20124;-66
2023/01/10 09:30:41;;;;;;;0.00;0.00;;;7.20;90.90;;;;;;5006220;28;20038;-66
2023/01/10 09:33:07;;;;;;;0.20;0.20;;;7.20;91.00;;;;;;5004130;28;20041;-66
2023/01/10 09:35:37;;;;;;;0.00;0.00;;;7.20;91.10;;;;;;4995235;28;20071;-67
2023/01/10 09:38:04;;;;;;;0.00;0.00;;;7.30;91.10;;;;;;5006713;28;20514;-66
2023/01/10 09:40:59;;;;;;;0.10;0.10;;;7.30;91.20;;;;;;5006547;28;20121;-67
2023/01/10 09:43:43;;;;;;;0.00;0.00;;;7.30;91.30;;;;;;5006773;28;20485;-70
2023/01/10 09:46:12;;;;;;;0.00;0.00;;;7.30;91.30;;;;;;5004559;28;20049;-69
2023/01/10 09:48:50;;;;;;;0.00;0.00;;;7.60;91.70;;;;;;5006744;28;20038;-68
2023/01/10 09:51:34;;;;;;;0.05;0.05;;;7.60;91.30;;;;;;5006726;28;20083;-68
2023/01/10 09:54:04;;;;;;;0.00;0.00;;;7.60;91.40;;;;;;5006256;28;20056;-71
2023/01/10 09:56:31;;;;;;;0.10;0.10;;;7.60;91.40;;;;;;5006622;28;20514;-66
2023/01/10 09:58:59;;;;;;;0.00;0.00;;;7.60;91.30;;;;;;4997196;28;20054;-67
2023/01/10 10:01:35;;;;;;;0.00;0.00;;;7.60;91.30;;;;;;5005944;28;20038;-67
2023/01/10 10:04:09;;;;;;;3.60;1.95;;;7.60;91.20;;;;;;5007797;28;20092;-68
2023/01/10 10:06:35;;;;;;;0.00;0.00;;;7.60;91.10;;;;;;4996983;28;20042;-68
2023/01/10 10:09:01;;;;;;;0.00;0.00;;;7.60;91.10;;;;;;5006301;28;20050;-67
2023/01/10 10:11:26;;;;;;;0.00;0.00;;;7.60;91.00;;;;;;5009149;28;20046;-67
2023/01/10 10:14:18;;;;;;;0.20;0.20;;;7.60;91.00;;;;;;5009624;28;20088;-67
2023/01/10 10:16:49;;;;;;;0.00;0.00;;;7.60;90.70;;;;;;5011199;28;20125;-67
2023/01/10 10:19:25;;;;;;;0.00;0.00;;;7.60;90.80;;;;;;5009537;28;20529;-67
2023/01/10 10:22:10;;;;;;;0.00;0.00;;;7.60;90.80;;;;;;5007663;28;20293;-67
2023/01/10 10:24:51;;;;;;;0.00;0.00;;;7.60;90.80;;;;;;5000450;28;20057;-67
2023/01/10 10:27:21;;;;;;;0.00;0.00;;;7.60;90.70;;;;;;5000073;28;20042;-68
2023/01/10 10:30:12;;;;;;;0.00;0.00;;;7.60;90.80;;;;;;5009634;28;20046;-67
2023/01/10 10:33:06;;;;;;;0.00;0.00;;;7.60;90.80;;;;;;5009693;28;20092;-67
2023/01/10 10:35:41;;;;;;;0.00;0.00;;;7.60;90.80;;;;;;5009494;28;20073;-67
2023/01/10 10:38:41;;;;;;;0.15;0.15;;;7.60;90.80;;;;;;5008798;28;20937;-67
2023/01/10 10:41:26;;;;;;;0.00;0.00;;;7.60;90.70;;;;;;4992671;28;20054;-67
2023/01/10 10:43:53;;;;;;;0.00;0.00;;;7.60;90.70;;;;;;5008844;28;20699;-67
2023/01/10 10:46:20;;;;;;;0.00;0.00;;;7.60;90.60;;;;;;5001094;28;20065;-67
2023/01/10 10:48:59;;;;;;;0.00;0.00;;;7.60;90.60;;;;;;5010097;28;20037;-66
2023/01/10 10:51:37;;;;;;;0.00;0.00;;;7.60;90.60;;;;;;5009869;28;20454;-66
2023/01/10 10:54:05;;;;;;;0.65;0.65;;;7.60;90.50;;;;;;4999819;28;20070;-67
2023/01/10 10:56:31;;;;;;;0.00;0.00;;;7.60;90.50;;;;;;5009364;28;20048;-66
2023/01/10 10:58:58;;;;;;;0.00;0.00;;;7.60;90.40;;;;;;5001672;28;20058;-66
2023/01/10 11:01:25;;;;;;;0.00;0.00;;;7.60;90.40;;;;;;4995354;28;20038;-66
2023/01/10 11:03:57;;;;;;;0.38;0.38;;;7.60;90.40;;;;;;5008629;28;20053;-69
2023/01/10 11:06:25;;;;;;;0.38;0.38;;;7.60;90.30;;;;;;5008442;28;20054;-68
2023/01/10 11:08:55;;;;;;;0.00;0.00;;;7.60;90.40;;;;;;5007269;28;20050;-69
2023/01/10 11:11:25;;;;;;;0.00;0.00;;;7.60;90.00;;;;;;5008556;28;20096;-68
2023/01/10 11:14:00;;;;;;;0.00;0.00;;;7.60;90.20;;;;;;5009318;28;20045;-68
2023/01/10 11:16:31;;;;;;;0.03;0.03;;;7.60;90.20;;;;;;5008680;28;20033;-68
2023/01/10 11:19:12;;;;;;;0.00;0.00;;;7.50;90.20;;;;;;4982475;28;20077;-68
2023/01/10 11:21:39;;;;;;;0.10;0.10;;;7.60;90.10;;;;;;5007357;28;20046;-70
2023/01/10 11:24:19;;;;;;;0.00;0.00;;;7.50;90.00;;;;;;5007784;28;20176;-68
2023/01/10 11:26:44;;;;;;;0.10;0.10;;;7.50;90.10;;;;;;5015289;28;20046;-68
2023/01/10 11:29:42;;;;;;;0.00;0.00;;;7.50;90.20;;;;;;5009741;28;20072;-68
2023/01/10 11:32:13;;;;;;;0.00;0.00;;;7.50;90.10;;;;;;5008360;28;20046;-68
2023/01/10 11:34:40;;;;;;;;;;;7.50;90.20;;;;;;5009614;28;20050;-68
2023/01/10 11:37:33;;;;;;;0.10;0.10;;;7.50;90.20;;;;;;4998783;28;19929;-68
2023/01/10 11:40:18;;;;;;;0.00;0.00;;;7.40;90.10;;;;;;5009495;28;20046;-68
2023/01/10 11:42:45;;;;;;;0.57;0.57;;;7.40;90.10;;;;;;5008595;28;20037;-68
2023/01/10 11:45:16;;;;;;;0.00;0.00;;;7.40;90.20;;;;;;5008666;28;20038;-68
2023/01/10 11:47:47;;;;;;;0.10;0.10;;;7.40;90.10;;;;;;5007532;28;20052;-67
2023/01/10 11:50:34;;;;;;;0.00;0.00;;;7.40;90.20;;;;;;4998473;28;20050;-68
2023/01/10 11:53:00;;;;;;;0.00;0.00;;;7.40;90.30;;;;;;4966082;28;20061;-68
2023/01/10 11:55:32;;;;;;;1.00;0.95;;;7.40;90.30;;;;;;5008802;28;20034;-68
2023/01/10 11:58:07;;;;;;;0.00;0.00;;;7.40;90.20;;;;;;5007686;28;20123;-68
2023/01/10 12:00:40;;;;;;;0.00;0.00;;;7.30;90.20;;;;;;5008019;28;20044;-66
2023/01/10 12:03:19;;;;;;;0.00;0.00;;;7.20;90.20;;;;;;5008858;28;20139;-67
2023/01/10 12:05:53;;;;;;;0.10;0.10;;;7.30;90.40;;;;;;5006073;28;20042;-67
2023/01/10 12:08:49;;;;;;;0.00;0.00;;;7.20;90.40;;;;;;5008320;28;20034;-66
2023/01/10 12:11:26;;;;;;;0.00;0.00;;;7.30;90.40;;;;;;4989092;28;20050;-66
2023/01/10 12:13:54;;;;;;;0.00;0.00;;;7.20;90.40;;;;;;5007939;28;20060;-66
2023/01/10 12:16:29;;;;;;;0.00;0.00;;;7.20;90.40;;;;;;5007954;28;20068;-66
2023/01/10 12:19:00;;;;;;;0.00;0.00;;;7.20;90.30;;;;;;5008755;28;20096;-66
2023/01/10 12:21:33;;;;;;;0.00;0.00;;;7.20;90.30;;;;;;5007373;28;21318;-66
2023/01/10 12:24:03;;;;;;;0.00;0.00;;;7.20;90.40;;;;;;5009034;28;20442;-66
2023/01/10 12:26:31;;;;;;;0.00;0.00;;;7.10;90.20;;;;;;5007893;28;20045;-66
2023/01/10 12:29:00;;;;;;;0.10;0.10;;;7.10;90.40;;;;;;5007396;28;20042;-66
2023/01/10 12:31:30;;;;;;;0.00;0.00;;;7.20;90.40;;;;;;5006484;28;20050;-66
2023/01/10 12:34:01;;;;;;;0.00;0.00;;;7.10;90.40;;;;;;5007001;28;20046;-66
2023/01/10 12:36:30;;;;;;;0.00;0.00;;;7.20;90.40;;;;;;4995678;28;20045;-67
2023/01/10 12:39:04;;;;;;;0.00;0.00;;;7.10;90.40;;;;;;5007018;28;20048;-66
2023/01/10 12:44:42;;;;;;;0.00;0.00;;;7.10;90.20;;;;;;5007688;28;20069;-66
2023/01/10 12:47:27;;;;;;;0.00;0.00;;;7.00;89.80;;;;;;5007278;28;20033;-67
2023/01/10 12:50:12;;;;;;;2.28;2.10;;;7.00;90.10;;;;;;5006872;28;20038;-67
2023/01/10 12:53:07;;;;;;;0.00;0.00;;;7.00;90.00;;;;;;4982056;28;20064;-66
2023/01/10 12:55:40;;;;;;;0.00;0.00;;;7.00;90.00;;;;;;5006914;28;20077;-68
2023/01/10 12:58:11;;;;;;;0.00;0.00;;;7.00;89.90;;;;;;5006738;28;20050;-68
2023/01/10 13:00:42;;;;;;;0.00;0.00;;;7.00;89.80;;;;;;4996738;28;20046;-68
2023/01/10 13:03:21;;;;;;;0.05;0.05;;;6.90;89.90;;;;;;5006901;28;20092;-68
2023/01/10 13:05:48;;;;;;;7.97;1.00;;;6.90;89.80;;;;;;5006910;28;20037;-68
2023/01/10 13:08:18;;;;;;;0.00;0.00;;;6.80;89.90;;;;;;5006407;28;20054;-66
2023/01/10 13:10:48;;;;;;;0.00;0.00;;;6.80;90.10;;;;;;5003384;28;20566;-66
2023/01/10 13:13:42;;;;;;;0.08;0.08;;;6.90;90.00;;;;;;5006867;28;20034;-66
2023/01/10 13:16:34;;;;;;;0.00;0.00;;;6.90;90.00;;;;;;4997483;28;20064;-66
2023/01/10 13:19:09;;;;;;;0.00;0.00;;;6.90;90.00;;;;;;5006359;28;20396;-66
2023/01/10 13:21:36;;;;;;;0.10;0.10;;;6.90;90.00;;;;;;5007202;28;20050;-65
2023/01/10 13:24:05;;;;;;;0.00;0.00;;;6.90;89.90;;;;;;4997087;28;20053;-65
2023/01/10 13:26:51;;;;;;;0.00;0.00;;;6.90;89.80;;;;;;5007190;28;20136;-65